sensor_id;sensor_type;location;lat;lon;timestamp;pressure;altitude;pressure_sealevel;temperature;humidity
15444;BME280;7822;48.146;11.576;2023-04-22T00:00:33;94605.16;;;14.65;66.74
15444;BME280;7822;48.146;11.576;2023-04-22T00:03:02;94605.94;;;14.65;66.71
15444;BME280;7822;48.146;11.576;2023-04-22T00:05:30;94600.88;;;14.64;66.86
15444;BME280;7822;48.146;11.576;2023-04-22T00:07:58;94597.44;;;14.63;66.75
15444;BME280;7822;48.146;11.576;2023-04-22T00:10:26;94598.28;;;14.64;66.92
15444;BME280;7822;48.146;11.576;2023-04-22T00:12:55;94591.28;;;14.64;66.98
15444;BME280;7822;48.146;11.576;2023-04-22T00:15:22;94588.66;;;14.64;67.07
15444;BME280;7822;48.146;11.576;2023-04-22T00:17:52;94594.69;;;14.65;66.97
15444;BME280;7822;48.146;11.576;2023-04-22T00:20:19;94588.66;;;14.64;66.92
15444;BME280;7822;48.146;11.576;2023-04-22T00:22:47;94598.09;;;14.65;66.82
15444;BME280;7822;48.146;11.576;2023-04-22T00:25:15;94591.28;;;14.64;66.96
15444;BME280;7822;48.146;11.576;2023-04-22T00:27:43;94602.53;;;14.65;66.89
15444;BME280;7822;48.146;11.576;2023-04-22T00:30:13;94591.28;;;14.64;66.76
15444;BME280;7822;48.146;11.576;2023-04-22T00:32:41;94588.66;;;14.64;66.84
15444;BME280;7822;48.146;11.576;2023-04-22T00:35:09;94587.84;;;14.64;66.64
15444;BME280;7822;48.146;11.576;2023-04-22T00:37:36;94583.44;;;14.64;66.73
15444;BME280;7822;48.146;11.576;2023-04-22T00:40:06;94581.66;;;14.65;66.71
15444;BME280;7822;48.146;11.576;2023-04-22T00:42:35;94581.78;;;14.63;66.79
15444;BME280;7822;48.146;11.576;2023-04-22T00:45:04;94580.81;;;14.64;66.87
15444;BME280;7822;48.146;11.576;2023-04-22T00:47:37;94591.28;;;14.64;66.74
15444;BME280;7822;48.146;11.576;2023-04-22T00:50:06;94585.22;;;14.64;66.69
15444;BME280;7822;48.146;11.576;2023-04-22T00:52:34;94588.66;;;14.64;66.73
15444;BME280;7822;48.146;11.576;2023-04-22T00:55:03;94592.09;;;14.65;66.73
15444;BME280;7822;48.146;11.576;2023-04-22T00:57:31;94589.47;;;14.65;66.59
15444;BME280;7822;48.146;11.576;2023-04-22T01:00:00;94591.28;;;14.64;66.83
15444;BME280;7822;48.146;11.576;2023-04-22T01:02:28;94586.19;;;14.63;66.67
15444;BME280;7822;48.146;11.576;2023-04-22T01:04:58;94587.00;;;14.63;66.89
15444;BME280;7822;48.146;11.576;2023-04-22T01:07:26;94589.63;;;14.63;66.76
15444;BME280;7822;48.146;11.576;2023-04-22T01:09:55;94587.84;;;14.64;67.01
15444;BME280;7822;48.146;11.576;2023-04-22T01:12:23;94587.84;;;14.64;66.65
15444;BME280;7822;48.146;11.576;2023-04-22T01:14:51;94588.66;;;14.64;66.88
15444;BME280;7822;48.146;11.576;2023-04-22T01:17:19;94594.84;;;14.63;66.57
15444;BME280;7822;48.146;11.576;2023-04-22T01:19:47;94581.78;;;14.63;66.75
15444;BME280;7822;48.146;11.576;2023-04-22T01:22:17;94589.63;;;14.63;67.06
15444;BME280;7822;48.146;11.576;2023-04-22T01:24:47;94587.00;;;14.63;66.71
15444;BME280;7822;48.146;11.576;2023-04-22T01:27:15;94594.03;;;14.63;67.08
15444;BME280;7822;48.146;11.576;2023-04-22T01:29:43;94592.22;;;14.63;66.66
15444;BME280;7822;48.146;11.576;2023-04-22T01:32:11;94591.41;;;14.63;67.01
15444;BME280;7822;48.146;11.576;2023-04-22T01:34:39;94592.41;;;14.62;66.88
15444;BME280;7822;48.146;11.576;2023-04-22T01:37:07;94592.41;;;14.62;67.08
15444;BME280;7822;48.146;11.576;2023-04-22T01:39:36;94593.22;;;14.62;66.76
15444;BME280;7822;48.146;11.576;2023-04-22T01:42:06;94593.22;;;14.62;66.89
15444;BME280;7822;48.146;11.576;2023-04-22T01:44:34;94595.84;;;14.62;67.00
15444;BME280;7822;48.146;11.576;2023-04-22T01:47:02;94595.00;;;14.62;66.64
15444;BME280;7822;48.146;11.576;2023-04-22T01:49:30;94596.63;;;14.63;66.81
15444;BME280;7822;48.146;11.576;2023-04-22T01:51:58;94590.63;;;14.62;66.63
15444;BME280;7822;48.146;11.576;2023-04-22T01:54:25;94597.63;;;14.62;66.96
15444;BME280;7822;48.146;11.576;2023-04-22T01:56:54;94592.22;;;14.63;66.84
15444;BME280;7822;48.146;11.576;2023-04-22T01:59:25;94591.41;;;14.63;66.77
15444;BME280;7822;48.146;11.576;2023-04-22T02:01:53;94594.03;;;14.63;67.08
15444;BME280;7822;48.146;11.576;2023-04-22T02:04:21;94594.84;;;14.63;66.54
15444;BME280;7822;48.146;11.576;2023-04-22T02:06:48;94594.84;;;14.63;66.82
15444;BME280;7822;48.146;11.576;2023-04-22T02:09:16;94599.25;;;14.63;67.04
15444;BME280;7822;48.146;11.576;2023-04-22T02:11:44;94596.63;;;14.63;66.99
15444;BME280;7822;48.146;11.576;2023-04-22T02:14:12;94587.84;;;14.64;66.66
15444;BME280;7822;48.146;11.576;2023-04-22T02:16:41;94598.28;;;14.64;66.85
15444;BME280;7822;48.146;11.576;2023-04-22T02:19:09;94600.06;;;14.63;66.95
15444;BME280;7822;48.146;11.576;2023-04-22T02:21:38;94596.50;;;14.64;66.99
15444;BME280;7822;48.146;11.576;2023-04-22T02:24:06;94602.53;;;14.65;66.74
15444;BME280;7822;48.146;11.576;2023-04-22T02:26:34;94594.84;;;14.63;66.83
15444;BME280;7822;48.146;11.576;2023-04-22T02:29:02;94597.31;;;14.65;66.46
15444;BME280;7822;48.146;11.576;2023-04-22T02:31:30;94597.44;;;14.63;66.76
15444;BME280;7822;48.146;11.576;2023-04-22T02:33:59;94598.28;;;14.64;66.76
15444;BME280;7822;48.146;11.576;2023-04-22T02:36:26;94597.44;;;14.63;66.79
15444;BME280;7822;48.146;11.576;2023-04-22T02:38:54;94600.88;;;14.64;66.92
15444;BME280;7822;48.146;11.576;2023-04-22T02:41:22;94598.28;;;14.64;66.59
15444;BME280;7822;48.146;11.576;2023-04-22T02:43:49;94601.72;;;14.64;66.86
15444;BME280;7822;48.146;11.576;2023-04-22T02:46:17;94595.66;;;14.64;66.67
15444;BME280;7822;48.146;11.576;2023-04-22T02:48:45;94595.66;;;14.64;66.79
15444;BME280;7822;48.146;11.576;2023-04-22T02:51:15;94588.81;;;14.63;67.05
15444;BME280;7822;48.146;11.576;2023-04-22T02:53:43;94588.66;;;14.64;66.62
15444;BME280;7822;48.146;11.576;2023-04-22T02:56:11;94587.84;;;14.64;66.77
15444;BME280;7822;48.146;11.576;2023-04-22T02:58:38;94587.00;;;14.63;66.67
15444;BME280;7822;48.146;11.576;2023-04-22T03:01:06;94586.03;;;14.64;66.67
15444;BME280;7822;48.146;11.576;2023-04-22T03:03:34;94587.00;;;14.63;66.55
15444;BME280;7822;48.146;11.576;2023-04-22T03:06:02;94592.22;;;14.63;66.75
15444;BME280;7822;48.146;11.576;2023-04-22T03:08:32;94584.41;;;14.63;66.92
15444;BME280;7822;48.146;11.576;2023-04-22T03:10:59;94583.44;;;14.64;66.86
15444;BME280;7822;48.146;11.576;2023-04-22T03:13:27;94580.97;;;14.63;66.77
15444;BME280;7822;48.146;11.576;2023-04-22T03:15:55;94586.19;;;14.63;66.92
15444;BME280;7822;48.146;11.576;2023-04-22T03:18:22;94585.41;;;14.62;66.77
15444;BME280;7822;48.146;11.576;2023-04-22T03:20:50;94581.97;;;14.62;66.53
15444;BME280;7822;48.146;11.576;2023-04-22T03:23:18;94583.56;;;14.63;66.73
15444;BME280;7822;48.146;11.576;2023-04-22T03:25:47;94580.19;;;14.62;66.67
15444;BME280;7822;48.146;11.576;2023-04-22T03:28:15;94569.72;;;14.62;66.66
15444;BME280;7822;48.146;11.576;2023-04-22T03:30:43;94572.34;;;14.62;66.73
15444;BME280;7822;48.146;11.576;2023-04-22T03:33:11;94573.97;;;14.63;66.77
15444;BME280;7822;48.146;11.576;2023-04-22T03:35:39;94583.44;;;14.64;66.76
15444;BME280;7822;48.146;11.576;2023-04-22T03:38:06;94579.19;;;14.63;66.62
15444;BME280;7822;48.146;11.576;2023-04-22T03:40:34;94575.09;;;14.61;67.22
15444;BME280;7822;48.146;11.576;2023-04-22T03:43:03;94576.56;;;14.63;66.76
15444;BME280;7822;48.146;11.576;2023-04-22T03:45:31;94589.63;;;14.63;66.95
15444;BME280;7822;48.146;11.576;2023-04-22T03:48:00;94589.78;;;14.62;66.80
15444;BME280;7822;48.146;11.576;2023-04-22T03:50:27;94589.63;;;14.63;66.52
15444;BME280;7822;48.146;11.576;2023-04-22T03:52:55;94588.00;;;14.62;66.80
15444;BME280;7822;48.146;11.576;2023-04-22T03:55:23;94589.63;;;14.63;66.92
15444;BME280;7822;48.146;11.576;2023-04-22T03:57:51;94583.56;;;14.63;66.76
15444;BME280;7822;48.146;11.576;2023-04-22T04:00:20;94585.41;;;14.62;66.74
15444;BME280;7822;48.146;11.576;2023-04-22T04:02:48;94590.63;;;14.62;67.03
15444;BME280;7822;48.146;11.576;2023-04-22T04:05:16;94587.00;;;14.63;66.73
15444;BME280;7822;48.146;11.576;2023-04-22T04:07:44;94588.00;;;14.62;66.74
15444;BME280;7822;48.146;11.576;2023-04-22T04:10:12;94584.25;;;14.65;66.92
15444;BME280;7822;48.146;11.576;2023-04-22T04:12:39;94588.66;;;14.64;66.65
15444;BME280;7822;48.146;11.576;2023-04-22T04:15:08;94595.50;;;14.65;66.62
15444;BME280;7822;48.146;11.576;2023-04-22T04:17:37;94595.50;;;14.65;66.80
15444;BME280;7822;48.146;11.576;2023-04-22T04:20:06;94587.53;;;14.67;66.73
15444;BME280;7822;48.146;11.576;2023-04-22T04:22:34;94602.19;;;14.68;66.68
15444;BME280;7822;48.146;11.576;2023-04-22T04:25:02;94602.19;;;14.68;66.66
15444;BME280;7822;48.146;11.576;2023-04-22T04:27:29;94593.53;;;14.67;66.55
15444;BME280;7822;48.146;11.576;2023-04-22T04:29:59;94590.13;;;14.67;66.59
15444;BME280;7822;48.146;11.576;2023-04-22T04:32:29;94579.03;;;14.65;66.44
15444;BME280;7822;48.146;11.576;2023-04-22T04:35:01;94589.13;;;14.68;66.71
15444;BME280;7822;48.146;11.576;2023-04-22T04:37:29;94586.53;;;14.68;66.57
15444;BME280;7822;48.146;11.576;2023-04-22T04:39:56;94590.91;;;14.67;66.69
15444;BME280;7822;48.146;11.576;2023-04-22T04:42:25;94592.75;;;14.67;66.88
15444;BME280;7822;48.146;11.576;2023-04-22T04:44:52;94585.69;;;14.67;66.90
15444;BME280;7822;48.146;11.576;2023-04-22T04:47:23;94590.78;;;14.69;66.74
15444;BME280;7822;48.146;11.576;2023-04-22T04:49:51;94591.91;;;14.66;66.55
15444;BME280;7822;48.146;11.576;2023-04-22T04:52:21;94598.63;;;14.69;66.72
15444;BME280;7822;48.146;11.576;2023-04-22T04:54:49;94592.56;;;14.68;66.79
15444;BME280;7822;48.146;11.576;2023-04-22T04:57:16;94594.19;;;14.69;66.68
15444;BME280;7822;48.146;11.576;2023-04-22T04:59:44;94599.41;;;14.69;66.75
15444;BME280;7822;48.146;11.576;2023-04-22T05:02:12;94597.63;;;14.70;66.54
15444;BME280;7822;48.146;11.576;2023-04-22T05:04:40;94595.84;;;14.70;66.83
15444;BME280;7822;48.146;11.576;2023-04-22T05:07:08;94601.06;;;14.70;66.84
15444;BME280;7822;48.146;11.576;2023-04-22T05:09:37;94591.56;;;14.69;66.55
15444;BME280;7822;48.146;11.576;2023-04-22T05:12:05;94592.41;;;14.70;66.81
15444;BME280;7822;48.146;11.576;2023-04-22T05:14:33;94586.22;;;14.71;66.69
15444;BME280;7822;48.146;11.576;2023-04-22T05:17:01;94581.97;;;14.70;66.73
15444;BME280;7822;48.146;11.576;2023-04-22T05:19:29;94588.81;;;14.71;66.73
15444;BME280;7822;48.146;11.576;2023-04-22T05:21:57;94588.00;;;14.70;66.52
15444;BME280;7822;48.146;11.576;2023-04-22T05:24:24;94590.59;;;14.70;66.75
15444;BME280;7822;48.146;11.576;2023-04-22T05:26:54;94587.19;;;14.70;66.81
15444;BME280;7822;48.146;11.576;2023-04-22T05:29:22;94589.66;;;14.71;66.92
15444;BME280;7822;48.146;11.576;2023-04-22T05:31:50;94587.19;;;14.70;67.01
15444;BME280;7822;48.146;11.576;2023-04-22T05:34:18;94594.03;;;14.71;66.84
15444;BME280;7822;48.146;11.576;2023-04-22T05:36:46;94595.66;;;14.72;66.76
15444;BME280;7822;48.146;11.576;2023-04-22T05:39:13;94595.66;;;14.72;66.85
15444;BME280;7822;48.146;11.576;2023-04-22T05:41:41;94598.28;;;14.72;66.84
15444;BME280;7822;48.146;11.576;2023-04-22T05:44:14;94606.09;;;14.72;66.78
15444;BME280;7822;48.146;11.576;2023-04-22T05:46:43;94610.34;;;14.73;66.63
15444;BME280;7822;48.146;11.576;2023-04-22T05:49:10;94606.94;;;14.72;66.45
15444;BME280;7822;48.146;11.576;2023-04-22T05:51:38;94621.63;;;14.73;66.64
15444;BME280;7822;48.146;11.576;2023-04-22T05:54:06;94617.38;;;14.72;66.49
15444;BME280;7822;48.146;11.576;2023-04-22T05:56:33;94613.94;;;14.72;66.50
15444;BME280;7822;48.146;11.576;2023-04-22T05:59:01;94618.38;;;14.71;66.59
15444;BME280;7822;48.146;11.576;2023-04-22T06:01:30;94629.59;;;14.72;66.63
15444;BME280;7822;48.146;11.576;2023-04-22T06:03:57;94626.19;;;14.71;66.40
15444;BME280;7822;48.146;11.576;2023-04-22T06:06:26;94629.59;;;14.72;66.82
15444;BME280;7822;48.146;11.576;2023-04-22T06:08:53;94626.19;;;14.71;66.74
15444;BME280;7822;48.146;11.576;2023-04-22T06:11:21;94626.97;;;14.72;66.64
15444;BME280;7822;48.146;11.576;2023-04-22T06:13:49;94628.63;;;14.73;66.95
15444;BME280;7822;48.146;11.576;2023-04-22T06:16:16;94632.22;;;14.72;66.60
15444;BME280;7822;48.146;11.576;2023-04-22T06:18:45;94629.59;;;14.72;66.78
15444;BME280;7822;48.146;11.576;2023-04-22T06:21:13;94628.63;;;14.73;66.51
15444;BME280;7822;48.146;11.576;2023-04-22T06:23:41;94626.84;;;14.73;66.92
15444;BME280;7822;48.146;11.576;2023-04-22T06:26:09;94628.63;;;14.73;66.66
15444;BME280;7822;48.146;11.576;2023-04-22T06:28:37;94631.25;;;14.73;66.73
15444;BME280;7822;48.146;11.576;2023-04-22T06:31:05;94634.81;;;14.72;66.92
15444;BME280;7822;48.146;11.576;2023-04-22T06:33:33;94626.19;;;14.71;66.96
15444;BME280;7822;48.146;11.576;2023-04-22T06:36:02;94633.03;;;14.72;66.95
15444;BME280;7822;48.146;11.576;2023-04-22T06:38:31;94627.97;;;14.71;67.17
15444;BME280;7822;48.146;11.576;2023-04-22T06:40:59;94630.59;;;14.71;67.05
15444;BME280;7822;48.146;11.576;2023-04-22T06:43:26;94635.00;;;14.70;66.80
15444;BME280;7822;48.146;11.576;2023-04-22T06:45:54;94642.00;;;14.70;66.83
15444;BME280;7822;48.146;11.576;2023-04-22T06:48:22;94638.44;;;14.71;67.00
15444;BME280;7822;48.146;11.576;2023-04-22T06:50:50;94638.56;;;14.69;67.04
15444;BME280;7822;48.146;11.576;2023-04-22T06:53:19;94636.94;;;14.68;66.95
15444;BME280;7822;48.146;11.576;2023-04-22T06:55:47;94633.34;;;14.69;67.15
15444;BME280;7822;48.146;11.576;2023-04-22T06:58:15;94629.78;;;14.70;67.16
15444;BME280;7822;48.146;11.576;2023-04-22T07:00:43;94634.16;;;14.70;66.96
15444;BME280;7822;48.146;11.576;2023-04-22T07:03:11;94639.38;;;14.70;67.00
15444;BME280;7822;48.146;11.576;2023-04-22T07:05:39;94629.78;;;14.70;66.91
15444;BME280;7822;48.146;11.576;2023-04-22T07:08:06;94627.97;;;14.71;67.22
15444;BME280;7822;48.146;11.576;2023-04-22T07:10:36;94627.97;;;14.71;67.07
15444;BME280;7822;48.146;11.576;2023-04-22T07:13:04;94630.59;;;14.71;67.17
15444;BME280;7822;48.146;11.576;2023-04-22T07:15:31;94635.81;;;14.71;67.11
15444;BME280;7822;48.146;11.576;2023-04-22T07:17:59;94634.81;;;14.72;67.05
15444;BME280;7822;48.146;11.576;2023-04-22T07:20:27;94632.22;;;14.72;66.99
15444;BME280;7822;48.146;11.576;2023-04-22T07:22:55;94630.25;;;14.74;67.23
15444;BME280;7822;48.146;11.576;2023-04-22T07:25:22;94630.09;;;14.75;67.28
15444;BME280;7822;48.146;11.576;2023-04-22T07:27:51;94622.09;;;14.77;67.08
15444;BME280;7822;48.146;11.576;2023-04-22T07:30:19;94621.13;;;14.78;67.08
15444;BME280;7822;48.146;11.576;2023-04-22T07:32:47;94617.84;;;14.76;67.18
15444;BME280;7822;48.146;11.576;2023-04-22T07:35:15;94616.22;;;14.75;67.24
15444;BME280;7822;48.146;11.576;2023-04-22T07:37:43;94617.06;;;14.75;67.04
15444;BME280;7822;48.146;11.576;2023-04-22T07:40:11;94620.63;;;14.74;67.10
15444;BME280;7822;48.146;11.576;2023-04-22T07:42:39;94621.44;;;14.75;67.33
15444;BME280;7822;48.146;11.576;2023-04-22T07:45:09;94618.03;;;14.74;67.15
15444;BME280;7822;48.146;11.576;2023-04-22T07:47:37;94620.47;;;14.76;67.17
15444;BME280;7822;48.146;11.576;2023-04-22T07:50:06;94620.16;;;14.79;67.12
15444;BME280;7822;48.146;11.576;2023-04-22T07:52:33;94620.97;;;14.79;65.65
15444;BME280;7822;48.146;11.576;2023-04-22T07:55:01;94619.19;;;14.80;63.57
15444;BME280;7822;48.146;11.576;2023-04-22T07:57:29;94624.22;;;14.81;63.81
15444;BME280;7822;48.146;11.576;2023-04-22T08:00:01;94619.66;;;14.83;63.92
15444;BME280;7822;48.146;11.576;2023-04-22T08:02:30;94623.91;;;14.84;63.96
15444;BME280;7822;48.146;11.576;2023-04-22T08:04:58;94629.78;;;14.87;63.58
15444;BME280;7822;48.146;11.576;2023-04-22T08:07:27;94622.75;;;14.87;63.02
15444;BME280;7822;48.146;11.576;2023-04-22T08:09:59;94620.94;;;14.88;62.21
15444;BME280;7822;48.146;11.576;2023-04-22T08:12:26;94623.44;;;14.89;61.16
15444;BME280;7822;48.146;11.576;2023-04-22T08:14:54;94629.31;;;14.91;60.20
15444;BME280;7822;48.146;11.576;2023-04-22T08:17:23;94631.72;;;14.93;58.84
15444;BME280;7822;48.146;11.576;2023-04-22T08:19:52;94622.91;;;14.94;59.10
15444;BME280;7822;48.146;11.576;2023-04-22T08:22:20;94618.84;;;14.91;59.87
15444;BME280;7822;48.146;11.576;2023-04-22T08:24:49;94617.38;;;14.89;60.27
15444;BME280;7822;48.146;11.576;2023-04-22T08:27:16;94619.34;;;14.87;61.16
15444;BME280;7822;48.146;11.576;2023-04-22T08:29:45;94628.31;;;14.84;61.78
15444;BME280;7822;48.146;11.576;2023-04-22T08:32:12;94621.31;;;14.84;62.40
15444;BME280;7822;48.146;11.576;2023-04-22T08:34:40;94629.13;;;14.84;62.78
15444;BME280;7822;48.146;11.576;2023-04-22T08:37:11;94629.94;;;14.85;62.75
15444;BME280;7822;48.146;11.576;2023-04-22T08:39:38;94627.50;;;14.83;63.10
15444;BME280;7822;48.146;11.576;2023-04-22T08:42:06;94628.47;;;14.82;62.94
15444;BME280;7822;48.146;11.576;2023-04-22T08:44:34;94627.81;;;14.80;63.26
15444;BME280;7822;48.146;11.576;2023-04-22T08:47:03;94625.19;;;14.80;63.33
15444;BME280;7822;48.146;11.576;2023-04-22T08:49:33;94627.00;;;14.80;63.51
15444;BME280;7822;48.146;11.576;2023-04-22T08:52:01;94623.75;;;14.78;63.67
15444;BME280;7822;48.146;11.576;2023-04-22T08:54:30;94623.88;;;14.76;63.86
15444;BME280;7822;48.146;11.576;2023-04-22T08:56:59;94617.84;;;14.76;64.03
15444;BME280;7822;48.146;11.576;2023-04-22T08:59:27;94615.22;;;14.76;64.18
15444;BME280;7822;48.146;11.576;2023-04-22T09:01:56;94615.22;;;14.76;64.21
15444;BME280;7822;48.146;11.576;2023-04-22T09:04:25;94617.06;;;14.75;64.18
15444;BME280;7822;48.146;11.576;2023-04-22T09:06:52;94618.84;;;14.75;64.63
15444;BME280;7822;48.146;11.576;2023-04-22T09:09:20;94613.44;;;14.76;64.43
15444;BME280;7822;48.146;11.576;2023-04-22T09:11:50;94610.00;;;14.76;64.32
15444;BME280;7822;48.146;11.576;2023-04-22T09:14:18;94608.41;;;14.75;64.28
15444;BME280;7822;48.146;11.576;2023-04-22T09:16:47;94612.63;;;14.76;64.56
15444;BME280;7822;48.146;11.576;2023-04-22T09:19:15;94609.22;;;14.75;64.75
15444;BME280;7822;48.146;11.576;2023-04-22T09:21:42;94605.78;;;14.75;64.43
15444;BME280;7822;48.146;11.576;2023-04-22T09:24:15;94602.19;;;14.76;64.73
15444;BME280;7822;48.146;11.576;2023-04-22T09:26:43;94605.78;;;14.75;64.64
15444;BME280;7822;48.146;11.576;2023-04-22T09:29:14;94605.78;;;14.75;64.85
15444;BME280;7822;48.146;11.576;2023-04-22T09:31:47;94603.19;;;14.75;64.86
15444;BME280;7822;48.146;11.576;2023-04-22T09:34:15;94606.59;;;14.75;64.77
15444;BME280;7822;48.146;11.576;2023-04-22T09:36:43;94603.19;;;14.75;64.73
15444;BME280;7822;48.146;11.576;2023-04-22T09:39:12;94599.75;;;14.74;65.05
15444;BME280;7822;48.146;11.576;2023-04-22T09:41:40;94594.53;;;14.74;64.82
15444;BME280;7822;48.146;11.576;2023-04-22T09:44:10;94594.34;;;14.76;64.87
15444;BME280;7822;48.146;11.576;2023-04-22T09:46:41;94586.69;;;14.74;65.25
15444;BME280;7822;48.146;11.576;2023-04-22T09:49:09;94585.72;;;14.75;65.10
15444;BME280;7822;48.146;11.576;2023-04-22T09:51:39;94591.91;;;14.74;65.22
15444;BME280;7822;48.146;11.576;2023-04-22T09:54:08;94591.91;;;14.74;65.15
15444;BME280;7822;48.146;11.576;2023-04-22T09:56:47;94588.34;;;14.75;65.26
15444;BME280;7822;48.146;11.576;2023-04-22T09:59:19;94582.47;;;14.73;65.08
15444;BME280;7822;48.146;11.576;2023-04-22T10:01:51;94576.41;;;14.73;65.54
15444;BME280;7822;48.146;11.576;2023-04-22T10:04:19;94565.16;;;14.72;65.47
15444;BME280;7822;48.146;11.576;2023-04-22T10:06:49;94572.81;;;14.74;65.42
15444;BME280;7822;48.146;11.576;2023-04-22T10:09:18;94569.41;;;14.73;65.38
15444;BME280;7822;48.146;11.576;2023-04-22T10:11:47;94561.72;;;14.72;65.50
15444;BME280;7822;48.146;11.576;2023-04-22T10:14:15;94567.59;;;14.74;65.64
15444;BME280;7822;48.146;11.576;2023-04-22T10:16:46;94564.19;;;14.73;65.28
15444;BME280;7822;48.146;11.576;2023-04-22T10:19:23;94564.97;;;14.74;65.51
15444;BME280;7822;48.146;11.576;2023-04-22T10:21:58;94557.16;;;14.74;65.26
15444;BME280;7822;48.146;11.576;2023-04-22T10:24:29;94565.81;;;14.74;65.51
15444;BME280;7822;48.146;11.576;2023-04-22T10:27:06;94559.75;;;14.74;65.47
15444;BME280;7822;48.146;11.576;2023-04-22T10:29:38;94560.56;;;14.74;65.51
15444;BME280;7822;48.146;11.576;2023-04-22T10:32:23;94559.75;;;14.74;65.48
15444;BME280;7822;48.146;11.576;2023-04-22T10:35:11;94556.19;;;14.75;65.65
15444;BME280;7822;48.146;11.576;2023-04-22T10:37:43;94560.56;;;14.74;65.70
15444;BME280;7822;48.146;11.576;2023-04-22T10:40:16;94546.69;;;14.74;65.66
15444;BME280;7822;48.146;11.576;2023-04-22T10:42:48;94549.31;;;14.74;65.66
15444;BME280;7822;48.146;11.576;2023-04-22T10:45:24;94545.91;;;14.73;65.50
15444;BME280;7822;48.146;11.576;2023-04-22T10:47:53;94546.69;;;14.74;65.66
15444;BME280;7822;48.146;11.576;2023-04-22T10:50:24;94542.47;;;14.73;65.94
15444;BME280;7822;48.146;11.576;2023-04-22T10:52:55;94539.88;;;14.73;65.94
15444;BME280;7822;48.146;11.576;2023-04-22T10:55:24;94541.47;;;14.74;65.95
15444;BME280;7822;48.146;11.576;2023-04-22T10:57:52;94540.69;;;14.73;65.67
15444;BME280;7822;48.146;11.576;2023-04-22T11:00:38;94536.44;;;14.72;65.62
15444;BME280;7822;48.146;11.576;2023-04-22T11:03:25;94532.03;;;14.73;65.91
15444;BME280;7822;48.146;11.576;2023-04-22T11:06:16;94537.25;;;14.73;66.07
15444;BME280;7822;48.146;11.576;2023-04-22T11:08:46;94540.03;;;14.71;65.92
15444;BME280;7822;48.146;11.576;2023-04-22T11:11:16;94536.44;;;14.72;65.90
15444;BME280;7822;48.146;11.576;2023-04-22T11:13:46;94530.38;;;14.72;65.96
15444;BME280;7822;48.146;11.576;2023-04-22T11:16:16;94527.78;;;14.72;65.93
15444;BME280;7822;48.146;11.576;2023-04-22T11:18:45;94526.00;;;14.72;65.96
15444;BME280;7822;48.146;11.576;2023-04-22T11:21:15;94535.47;;;14.73;65.96
15444;BME280;7822;48.146;11.576;2023-04-22T11:23:48;94522.41;;;14.73;66.14
15444;BME280;7822;48.146;11.576;2023-04-22T11:26:17;94525.03;;;14.73;66.00
15444;BME280;7822;48.146;11.576;2023-04-22T11:28:45;94525.03;;;14.73;66.19
15444;BME280;7822;48.146;11.576;2023-04-22T11:31:13;94527.63;;;14.73;66.12
15444;BME280;7822;48.146;11.576;2023-04-22T11:33:41;94521.75;;;14.71;66.12
15444;BME280;7822;48.146;11.576;2023-04-22T11:36:09;94530.25;;;14.73;66.17
15444;BME280;7822;48.146;11.576;2023-04-22T11:38:39;94520.78;;;14.72;66.09
15444;BME280;7822;48.146;11.576;2023-04-22T11:41:06;94527.00;;;14.71;66.11
15444;BME280;7822;48.146;11.576;2023-04-22T11:43:44;94525.16;;;14.72;65.98
15444;BME280;7822;48.146;11.576;2023-04-22T11:46:12;94527.78;;;14.72;66.02
15444;BME280;7822;48.146;11.576;2023-04-22T11:48:40;94522.56;;;14.72;66.01
15444;BME280;7822;48.146;11.576;2023-04-22T11:51:08;94523.38;;;14.72;66.22
15444;BME280;7822;48.146;11.576;2023-04-22T11:53:49;94530.38;;;14.72;66.15
15444;BME280;7822;48.146;11.576;2023-04-22T11:56:17;94522.56;;;14.72;66.16
15444;BME280;7822;48.146;11.576;2023-04-22T11:58:46;94518.97;;;14.73;66.22
15444;BME280;7822;48.146;11.576;2023-04-22T12:01:13;94524.19;;;14.73;66.08
15444;BME280;7822;48.146;11.576;2023-04-22T12:03:41;94512.94;;;14.72;66.16
15444;BME280;7822;48.146;11.576;2023-04-22T12:06:09;94511.97;;;14.73;66.14
15444;BME280;7822;48.146;11.576;2023-04-22T12:08:39;94520.44;;;14.75;66.34
15444;BME280;7822;48.146;11.576;2023-04-22T12:11:09;94519.63;;;14.75;66.13
15444;BME280;7822;48.146;11.576;2023-04-22T12:13:40;94516.38;;;14.73;66.13
15444;BME280;7822;48.146;11.576;2023-04-22T12:16:09;94524.03;;;14.74;66.48
15444;BME280;7822;48.146;11.576;2023-04-22T12:18:39;94510.16;;;14.74;65.91
15444;BME280;7822;48.146;11.576;2023-04-22T12:21:08;94505.75;;;14.74;66.10
15444;BME280;7822;48.146;11.576;2023-04-22T12:23:44;94508.34;;;14.74;66.24
15444;BME280;7822;48.146;11.576;2023-04-22T12:26:14;94509.19;;;14.75;66.32
15444;BME280;7822;48.146;11.576;2023-04-22T12:28:42;94504.94;;;14.74;65.97
15444;BME280;7822;48.146;11.576;2023-04-22T12:31:11;94504.94;;;14.74;66.30
15444;BME280;7822;48.146;11.576;2023-04-22T12:33:39;94504.94;;;14.74;66.07
15444;BME280;7822;48.146;11.576;2023-04-22T12:36:08;94508.34;;;14.74;66.68
15444;BME280;7822;48.146;11.576;2023-04-22T12:38:36;94505.09;;;14.72;66.10
15444;BME280;7822;48.146;11.576;2023-04-22T12:41:05;94510.31;;;14.72;66.30
15444;BME280;7822;48.146;11.576;2023-04-22T12:43:33;94505.94;;;14.73;66.55
15444;BME280;7822;48.146;11.576;2023-04-22T12:46:02;94507.72;;;14.72;66.13
15444;BME280;7822;48.146;11.576;2023-04-22T12:48:30;94504.13;;;14.73;66.23
15444;BME280;7822;48.146;11.576;2023-04-22T12:50:58;94502.50;;;14.72;66.63
15444;BME280;7822;48.146;11.576;2023-04-22T12:53:26;94503.31;;;14.73;66.34
15444;BME280;7822;48.146;11.576;2023-04-22T12:55:55;94493.69;;;14.73;66.34
15444;BME280;7822;48.146;11.576;2023-04-22T12:58:25;94499.88;;;14.72;66.36
15444;BME280;7822;48.146;11.576;2023-04-22T13:00:53;94495.47;;;14.73;66.37
15444;BME280;7822;48.146;11.576;2023-04-22T13:03:20;94494.66;;;14.72;66.58
15444;BME280;7822;48.146;11.576;2023-04-22T13:05:48;94494.47;;;14.74;66.49
15444;BME280;7822;48.146;11.576;2023-04-22T13:08:16;94490.25;;;14.73;66.38